createdAt,value
2022-08-07T00:01:43.766Z,23.54
2022-08-07T00:04:11.435Z,23.53
2022-08-07T00:06:51.731Z,23.51
2022-08-07T00:09:22.850Z,23.48
2022-08-07T00:11:58.897Z,23.50
2022-08-07T00:14:31.788Z,23.48
2022-08-07T00:17:06.789Z,23.46
2022-08-07T00:20:00.902Z,23.43
2022-08-07T00:22:14.400Z,23.41
2022-08-07T00:24:48.624Z,23.39
2022-08-07T00:27:22.610Z,23.41
2022-08-07T00:29:54.855Z,23.42
2022-08-07T00:32:28.252Z,23.41
2022-08-07T00:35:01.230Z,23.37
2022-08-07T00:37:47.607Z,23.35
2022-08-07T00:40:11.733Z,23.32
2022-08-07T00:42:46.872Z,23.33
2022-08-07T00:45:22.014Z,23.33
2022-08-07T00:48:10.072Z,23.30
2022-08-07T00:50:51.383Z,23.27
2022-08-07T00:53:04.731Z,23.25
2022-08-07T00:56:02.683Z,23.22
2022-08-07T00:58:15.121Z,23.21
2022-08-07T01:00:53.601Z,23.21
2022-08-07T01:03:54.873Z,23.19
2022-08-07T01:05:56.985Z,23.18
2022-08-07T01:08:29.368Z,23.18
2022-08-07T01:12:04.821Z,23.18
2022-08-07T01:13:37.949Z,23.21
2022-08-07T01:16:12.175Z,23.24
2022-08-07T01:18:47.329Z,23.25
2022-08-07T01:21:26.032Z,23.26
2022-08-07T01:24:02.282Z,23.25
2022-08-07T01:26:35.747Z,23.23
2022-08-07T01:29:10.183Z,23.20
2022-08-07T01:31:48.244Z,23.18
2022-08-07T01:34:19.554Z,23.18
2022-08-07T01:36:57.722Z,23.17
2022-08-07T01:39:40.360Z,23.18
2022-08-07T01:42:37.994Z,23.17
2022-08-07T01:44:44.578Z,23.18
2022-08-07T01:48:19.337Z,23.17
2022-08-07T01:49:54.664Z,23.16
2022-08-07T01:52:29.046Z,23.15
2022-08-07T01:55:01.989Z,23.12
2022-08-07T01:58:01.358Z,23.13
2022-08-07T02:00:15.680Z,23.12
2022-08-07T02:03:19.381Z,23.10
2022-08-07T02:05:59.441Z,23.09
2022-08-07T02:08:25.645Z,23.06
2022-08-07T02:10:59.794Z,23.03
2022-08-07T02:13:57.894Z,23.00
2022-08-07T02:16:09.060Z,22.99
2022-08-07T02:18:47.273Z,22.99
2022-08-07T02:21:19.053Z,22.98
2022-08-07T02:23:51.774Z,22.96
2022-08-07T02:26:34.431Z,22.96
2022-08-07T02:29:00.083Z,22.98
2022-08-07T02:31:32.918Z,22.97
2022-08-07T02:34:11.636Z,22.96
2022-08-07T02:36:43.449Z,22.94
2022-08-07T02:39:43.890Z,22.94
2022-08-07T02:41:55.146Z,22.95
2022-08-07T02:44:34.671Z,22.96
2022-08-07T02:47:03.717Z,22.98
2022-08-07T02:49:56.315Z,22.99
2022-08-07T02:52:13.010Z,22.99
2022-08-07T02:54:46.802Z,23.03
2022-08-07T02:57:28.631Z,23.04
2022-08-07T03:00:01.262Z,23.03
2022-08-07T03:02:36.215Z,23.02
2022-08-07T03:05:12.770Z,23.03
2022-08-07T03:08:07.166Z,23.02
2022-08-07T03:10:23.734Z,23.04
2022-08-07T03:12:57.048Z,23.07
2022-08-07T03:15:55.626Z,23.09
2022-08-07T03:18:06.803Z,23.12
2022-08-07T03:20:40.585Z,23.13
2022-08-07T03:23:18.921Z,23.17
2022-08-07T03:25:58.187Z,23.23
2022-08-07T03:28:38.344Z,23.28
2022-08-07T03:30:59.874Z,23.34
2022-08-07T03:33:40.154Z,23.38
2022-08-07T03:36:09.711Z,23.43
2022-08-07T03:38:43.782Z,23.48
2022-08-07T03:41:17.646Z,23.55
2022-08-07T03:43:57.205Z,23.70
2022-08-07T03:46:25.533Z,23.70
2022-08-07T03:49:02.963Z,23.79
2022-08-07T03:51:47.629Z,23.85
2022-08-07T03:54:36.485Z,23.93
2022-08-07T03:57:03.589Z,24.01
2022-08-07T03:59:21.016Z,24.10
2022-08-07T04:01:55.623Z,24.31
2022-08-07T04:04:29.329Z,24.31
2022-08-07T04:07:16.599Z,24.42
2022-08-07T04:09:45.307Z,24.48
2022-08-07T04:12:28.906Z,24.57
2022-08-07T04:15:02.521Z,24.68
2022-08-07T04:18:31.043Z,24.78
2022-08-07T04:20:13.600Z,24.87
2022-08-07T04:22:53.482Z,24.98
2022-08-07T04:25:22.419Z,25.09
2022-08-07T04:28:00.322Z,25.16
2022-08-07T04:30:43.691Z,25.29
2022-08-07T04:33:09.740Z,25.39
2022-08-07T04:35:50.127Z,25.49
2022-08-07T04:38:26.683Z,25.60
2022-08-07T04:40:59.495Z,25.73
2022-08-07T04:44:12.607Z,25.85
2022-08-07T04:46:34.852Z,25.96
2022-08-07T04:49:38.446Z,26.05
2022-08-07T04:52:18.268Z,26.14
2022-08-07T04:55:02.616Z,26.21
2022-08-07T04:58:12.866Z,26.29
2022-08-07T05:00:42.314Z,26.36
2022-08-07T05:03:59.799Z,26.42
2022-08-07T05:06:19.520Z,26.50
2022-08-07T05:09:45.859Z,26.52
2022-08-07T05:12:04.755Z,26.51
2022-08-07T05:14:54.898Z,26.54
2022-08-07T05:17:52.455Z,26.59
2022-08-07T05:19:55.457Z,26.58
2022-08-07T05:22:28.345Z,26.61
2022-08-07T05:25:02.340Z,26.76
2022-08-07T05:28:15.939Z,26.90
2022-08-07T05:30:12.491Z,27.02
2022-08-07T05:32:47.794Z,27.14
2022-08-07T05:35:33.149Z,27.24
2022-08-07T05:38:08.599Z,27.30
2022-08-07T05:40:31.624Z,27.37
2022-08-07T05:43:06.682Z,27.49
2022-08-07T05:45:47.482Z,27.57
2022-08-07T05:48:17.683Z,27.63
2022-08-07T05:50:52.064Z,27.74
2022-08-07T05:54:13.457Z,27.85
2022-08-07T05:56:03.018Z,27.94
2022-08-07T05:58:36.813Z,28.14
2022-08-07T06:01:10.796Z,28.32
2022-08-07T06:03:56.868Z,28.46
2022-08-07T06:06:24.564Z,28.45
2022-08-07T06:08:59.942Z,28.37
2022-08-07T06:11:54.634Z,28.41
2022-08-07T06:14:30.272Z,28.42
2022-08-07T06:17:07.067Z,28.65
2022-08-07T06:19:47.904Z,28.90
2022-08-07T06:22:23.272Z,29.05
2022-08-07T06:24:58.349Z,29.16
2022-08-07T06:27:43.946Z,29.27
2022-08-07T06:30:02.682Z,29.43
2022-08-07T06:32:35.364Z,29.61
2022-08-07T06:35:19.831Z,29.74
2022-08-07T06:37:55.253Z,29.80
2022-08-07T06:40:34.394Z,29.89
2022-08-07T06:43:04.983Z,29.95
2022-08-07T06:45:47.173Z,29.94
2022-08-07T06:48:25.041Z,29.97
2022-08-07T06:50:56.047Z,30.04
2022-08-07T06:55:27.736Z,30.16
2022-08-07T06:56:03.483Z,30.23
2022-08-07T06:58:40.288Z,30.27
2022-08-07T07:01:17.663Z,30.38
2022-08-07T07:04:07.028Z,30.52
2022-08-07T07:06:34.712Z,30.61
2022-08-07T07:09:30.889Z,30.65
2022-08-07T07:12:33.395Z,30.77
2022-08-07T07:15:24.104Z,30.81
2022-08-07T07:18:09.114Z,30.85
2022-08-07T07:20:50.457Z,30.91
2022-08-07T07:24:08.641Z,31.09
2022-08-07T07:26:34.613Z,31.22
2022-08-07T07:29:38.896Z,31.40
2022-08-07T07:31:39.764Z,31.46
2022-08-07T07:34:07.838Z,31.63
2022-08-07T07:36:41.605Z,31.78
2022-08-07T07:39:15.800Z,31.84
2022-08-07T07:42:13.710Z,31.92
2022-08-07T07:44:26.859Z,31.96
2022-08-07T07:47:14.053Z,31.99
2022-08-07T07:50:33.579Z,32.12
2022-08-07T07:52:09.133Z,32.21
2022-08-07T07:54:50.445Z,32.16
2022-08-07T07:57:21.577Z,32.21
2022-08-07T07:59:55.835Z,32.35
2022-08-07T08:02:34.231Z,32.54
2022-08-07T08:05:14.202Z,32.70
2022-08-07T08:07:59.552Z,32.86
2022-08-07T08:10:38.279Z,33.06
2022-08-07T08:12:58.989Z,33.22
2022-08-07T08:15:26.181Z,33.42
2022-08-07T08:17:59.086Z,33.54
2022-08-07T08:20:34.733Z,33.57
2022-08-07T08:23:28.174Z,33.64
2022-08-07T08:26:20.660Z,33.80
2022-08-07T08:28:56.142Z,33.93
2022-08-07T08:32:04.850Z,34.03
2022-08-07T08:34:08.341Z,34.10
2022-08-07T08:36:41.905Z,34.18
2022-08-07T08:39:17.726Z,34.23
2022-08-07T08:42:20.557Z,34.23
2022-08-07T08:45:16.213Z,34.27
2022-08-07T08:48:32.357Z,34.30
2022-08-07T08:51:49.566Z,34.32
2022-08-07T08:54:37.121Z,34.42
2022-08-07T08:57:14.369Z,34.34
2022-08-07T08:59:57.203Z,34.35
2022-08-07T09:02:52.348Z,34.33
2022-08-07T09:05:59.502Z,34.41
2022-08-07T09:09:03.159Z,34.61
2022-08-07T09:12:19.871Z,34.70
2022-08-07T09:14:58.869Z,34.84
2022-08-07T09:18:15.815Z,35.00
2022-08-07T09:22:09.948Z,35.05
2022-08-07T09:24:58.869Z,35.27
2022-08-07T09:27:54.621Z,35.46
2022-08-07T09:30:10.584Z,35.32
2022-08-07T09:33:41.300Z,35.22
2022-08-07T09:36:09.667Z,35.20
2022-08-07T09:39:53.707Z,35.50
2022-08-07T09:42:23.193Z,35.51
2022-08-07T09:47:49.622Z,35.51
2022-08-07T09:48:01.824Z,35.34
2022-08-07T09:50:39.858Z,35.32
2022-08-07T09:53:13.702Z,35.13
2022-08-07T09:56:37.593Z,34.92
2022-08-07T10:00:00.645Z,34.51
2022-08-07T10:03:08.150Z,33.83
2022-08-07T10:06:36.216Z,33.42
2022-08-07T10:09:59.146Z,33.00
2022-08-07T10:12:53.885Z,32.68
2022-08-07T10:15:46.086Z,32.47
2022-08-07T10:19:03.727Z,32.43
2022-08-07T10:22:24.876Z,32.30
2022-08-07T10:25:06.966Z,32.16
2022-08-07T10:27:56.106Z,31.96
2022-08-07T10:30:45.739Z,31.75
2022-08-07T10:34:05.784Z,31.56
2022-08-07T10:36:51.159Z,31.27
2022-08-07T10:40:03.441Z,31.00
2022-08-07T10:42:49.977Z,30.74
2022-08-07T10:45:45.138Z,30.52
2022-08-07T10:48:48.439Z,30.24
2022-08-07T10:52:01.815Z,29.92
2022-08-07T10:54:26.338Z,29.66
2022-08-07T10:57:34.810Z,29.48
2022-08-07T11:00:39.226Z,29.44
2022-08-07T11:03:18.289Z,29.44
2022-08-07T11:06:21.897Z,29.45
2022-08-07T11:09:11.258Z,29.48
2022-08-07T11:12:10.783Z,29.47
2022-08-07T11:15:02.103Z,29.42
2022-08-07T11:17:49.541Z,29.33
2022-08-07T11:20:27.812Z,29.27
2022-08-07T11:23:20.563Z,29.25
2022-08-07T11:26:20.832Z,29.16
2022-08-07T11:29:41.948Z,29.03
2022-08-07T11:32:01.608Z,28.90
2022-08-07T11:35:00.646Z,28.84
2022-08-07T11:38:17.517Z,28.79
2022-08-07T11:40:59.598Z,28.72
2022-08-07T11:44:11.036Z,28.64
2022-08-07T11:46:51.068Z,28.55
2022-08-07T11:50:25.488Z,28.31
2022-08-07T11:52:29.338Z,28.05
2022-08-07T11:56:13.969Z,27.84
2022-08-07T11:58:49.711Z,27.66
2022-08-07T12:02:05.025Z,27.49
2022-08-07T12:04:58.626Z,27.20
2022-08-07T12:07:42.188Z,26.88
2022-08-07T12:10:34.074Z,26.62
2022-08-07T12:13:35.589Z,26.38
2022-08-07T12:16:06.779Z,26.08
2022-08-07T12:18:58.250Z,25.90
2022-08-07T12:22:39.233Z,25.78
2022-08-07T12:26:02.893Z,25.71
2022-08-07T12:28:08.624Z,25.58
2022-08-07T12:30:36.921Z,25.32
2022-08-07T12:33:28.041Z,25.07
2022-08-07T12:35:58.026Z,24.64
2022-08-07T12:38:42.991Z,24.38
2022-08-07T12:41:05.553Z,24.36
2022-08-07T12:44:04.085Z,24.37
2022-08-07T12:46:38.853Z,24.40
2022-08-07T12:50:02.580Z,24.39
2022-08-07T12:52:53.085Z,24.42
2022-08-07T12:55:41.320Z,24.41
2022-08-07T12:58:17.041Z,24.42
2022-08-07T13:01:03.480Z,24.43
2022-08-07T13:04:09.799Z,24.43
2022-08-07T13:07:07.934Z,24.39
2022-08-07T13:10:37.797Z,24.31
2022-08-07T13:13:46.914Z,24.28
2022-08-07T13:16:51.191Z,24.36
2022-08-07T13:19:51.438Z,24.42
2022-08-07T13:22:56.142Z,24.44
2022-08-07T13:26:00.851Z,24.45
2022-08-07T13:28:39.071Z,24.47
2022-08-07T13:31:24.382Z,24.40
2022-08-07T13:34:34.325Z,24.40
2022-08-07T13:37:10.535Z,24.38
2022-08-07T13:43:15.085Z,24.26
2022-08-07T13:46:10.765Z,24.21
2022-08-07T13:48:34.149Z,24.17
2022-08-07T13:51:01.957Z,24.15
2022-08-07T13:54:01.835Z,24.16
2022-08-07T13:56:19.438Z,24.17
2022-08-07T13:59:05.622Z,24.15
2022-08-07T14:01:51.628Z,24.11
2022-08-07T14:04:24.620Z,24.03
2022-08-07T14:06:58.723Z,23.96
2022-08-07T14:10:12.593Z,23.88
2022-08-07T14:12:31.079Z,23.88
2022-08-07T14:15:10.522Z,23.85
2022-08-07T14:18:27.061Z,23.74
2022-08-07T14:20:40.570Z,23.55
2022-08-07T14:23:59.483Z,23.37
2022-08-07T14:26:09.644Z,23.21
2022-08-07T14:28:58.947Z,23.19
2022-08-07T14:31:20.500Z,23.18
2022-08-07T14:33:55.337Z,23.18
2022-08-07T14:36:31.499Z,23.22
2022-08-07T14:39:06.535Z,23.19
2022-08-07T14:42:18.582Z,23.16
2022-08-07T14:44:15.905Z,23.20
2022-08-07T14:46:51.579Z,23.25
2022-08-07T14:49:57.739Z,23.30
2022-08-07T14:52:10.521Z,23.31
2022-08-07T14:54:43.379Z,23.35
2022-08-07T14:57:19.684Z,23.36
2022-08-07T15:00:04.396Z,23.29
2022-08-07T15:05:20.482Z,23.36
2022-08-07T15:13:06.233Z,23.53
2022-08-07T15:15:41.442Z,23.51
2022-08-07T15:18:34.114Z,23.55
2022-08-07T15:25:04.048Z,23.60
2022-08-07T15:26:21.117Z,23.59
2022-08-07T15:28:55.474Z,23.58
2022-08-07T15:32:01.779Z,23.58
2022-08-07T15:34:02.149Z,23.59
2022-08-07T15:37:03.061Z,23.57
2022-08-07T15:39:12.672Z,23.56
2022-08-07T15:42:44.206Z,23.47
2022-08-07T15:44:52.156Z,23.49
2022-08-07T15:50:05.739Z,23.64
2022-08-07T15:52:36.755Z,23.66
2022-08-07T15:55:12.525Z,23.63
2022-08-07T15:57:49.574Z,23.63
2022-08-07T16:00:33.678Z,23.62
2022-08-07T16:03:00.003Z,23.56
2022-08-07T16:05:33.441Z,23.53
2022-08-07T16:08:32.107Z,23.51
2022-08-07T16:10:50.940Z,23.43
2022-08-07T16:13:59.077Z,23.31
2022-08-07T16:16:47.557Z,23.24
2022-08-07T16:19:42.860Z,23.24
2022-08-07T16:22:36.414Z,23.27
2022-08-07T16:25:52.612Z,23.26
2022-08-07T16:30:09.135Z,23.27
2022-08-07T16:31:52.039Z,23.19
2022-08-07T16:34:37.207Z,23.13
2022-08-07T16:38:03.654Z,23.07
2022-08-07T16:40:31.935Z,23.10
2022-08-07T16:44:04.232Z,23.09
2022-08-07T16:47:07.821Z,23.10
2022-08-07T16:50:20.147Z,23.06
2022-08-07T16:52:51.328Z,22.98
2022-08-07T16:55:08.460Z,22.97
2022-08-07T16:58:01.558Z,22.97
2022-08-07T17:00:29.436Z,22.97
2022-08-07T17:03:06.090Z,22.96
2022-08-07T17:06:28.471Z,22.96
2022-08-07T17:09:09.914Z,22.96
2022-08-07T17:12:03.879Z,22.94
2022-08-07T17:14:28.052Z,22.88
2022-08-07T17:17:03.501Z,22.86
2022-08-07T17:20:14.398Z,22.86
2022-08-07T17:23:08.841Z,22.91
2022-08-07T17:25:53.983Z,22.94
2022-08-07T17:28:40.235Z,22.89
2022-08-07T17:31:19.323Z,22.91
2022-08-07T17:34:35.027Z,22.91
2022-08-07T17:37:14.401Z,22.93
2022-08-07T17:40:10.735Z,22.94
2022-08-07T17:43:15.036Z,22.95
2022-08-07T17:45:44.107Z,23.00
2022-08-07T17:52:00.472Z,23.01
2022-08-07T17:57:58.232Z,23.00
2022-08-07T18:00:32.989Z,23.01
2022-08-07T18:03:27.394Z,23.04
2022-08-07T18:06:16.633Z,23.06
2022-08-07T18:09:05.905Z,23.07
2022-08-07T18:12:16.091Z,23.10
2022-08-07T18:14:57.864Z,23.03
2022-08-07T18:18:46.770Z,22.93
2022-08-07T18:21:09.922Z,22.92
2022-08-07T18:23:42.215Z,22.96
2022-08-07T18:26:05.721Z,22.92
2022-08-07T18:30:05.654Z,22.91
2022-08-07T18:32:16.768Z,22.90
2022-08-07T18:35:16.762Z,22.92
2022-08-07T18:38:58.250Z,22.91
2022-08-07T18:41:46.005Z,22.83
2022-08-07T18:45:44.243Z,22.81
2022-08-07T18:48:01.306Z,22.80
2022-08-07T18:51:00.302Z,22.82
2022-08-07T18:53:55.907Z,22.79
2022-08-07T18:57:29.456Z,22.75
2022-08-07T19:00:33.104Z,22.68
2022-08-07T19:03:35.549Z,22.61
2022-08-07T19:06:05.032Z,22.56
2022-08-07T19:09:09.253Z,22.54
2022-08-07T19:12:03.906Z,22.54
2022-08-07T19:14:38.581Z,22.58
2022-08-07T19:18:03.982Z,22.59
2022-08-07T19:22:50.441Z,22.58
2022-08-07T19:26:24.351Z,22.56
2022-08-07T19:28:57.108Z,22.56
2022-08-07T19:31:03.256Z,22.51
2022-08-07T19:33:15.297Z,22.46
2022-08-07T19:35:49.435Z,22.44
2022-08-07T19:38:21.899Z,22.40
2022-08-07T19:41:00.524Z,22.38
2022-08-07T19:43:45.129Z,22.37
2022-08-07T19:46:10.680Z,22.36
2022-08-07T19:48:54.063Z,22.33
2022-08-07T19:51:50.969Z,22.27
2022-08-07T19:54:31.043Z,22.20
2022-08-07T19:57:51.231Z,22.17
2022-08-07T19:59:41.406Z,22.12
2022-08-07T20:02:03.665Z,22.03
2022-08-07T20:04:41.671Z,21.97
2022-08-07T20:07:23.880Z,21.91
2022-08-07T20:10:38.024Z,21.87
2022-08-07T20:12:34.454Z,21.85
2022-08-07T20:15:03.722Z,21.83
2022-08-07T20:17:38.521Z,21.79
2022-08-07T20:20:13.561Z,21.73
2022-08-07T20:22:47.109Z,21.68
2022-08-07T20:25:22.365Z,21.64
2022-08-07T20:27:58.690Z,21.57
2022-08-07T20:30:37.158Z,21.52
2022-08-07T20:33:36.407Z,21.52
2022-08-07T20:35:51.923Z,21.53
2022-08-07T20:38:24.403Z,21.53
2022-08-07T20:41:01.697Z,21.55
2022-08-07T20:43:36.193Z,21.60
2022-08-07T20:46:27.399Z,21.60
2022-08-07T20:49:54.599Z,21.57
2022-08-07T20:51:20.035Z,21.53
2022-08-07T20:54:04.482Z,21.54
2022-08-07T20:56:32.286Z,21.55
2022-08-07T21:00:04.242Z,21.57
2022-08-07T21:01:45.618Z,21.61
2022-08-07T21:04:22.779Z,21.60
2022-08-07T21:06:58.218Z,21.59
2022-08-07T21:09:52.699Z,21.59
2022-08-07T21:12:15.187Z,21.60
2022-08-07T21:14:48.428Z,21.63
2022-08-07T21:18:17.525Z,21.65
2022-08-07T21:20:04.424Z,21.69
2022-08-07T21:22:28.953Z,21.65
2022-08-07T21:25:42.587Z,21.56
2022-08-07T21:28:48.705Z,21.52
2022-08-07T21:31:16.031Z,21.43
2022-08-07T21:34:18.175Z,21.36
2022-08-07T21:36:59.388Z,21.33
2022-08-07T21:39:54.990Z,21.33
2022-08-07T21:43:06.515Z,21.33
2022-08-07T21:46:10.079Z,21.26
2022-08-07T21:48:34.575Z,21.21
2022-08-07T21:51:54.568Z,21.20
2022-08-07T21:54:46.237Z,21.23
2022-08-07T21:58:03.358Z,21.32
2022-08-07T22:00:36.163Z,21.40
2022-08-07T22:03:40.630Z,21.43
2022-08-07T22:06:30.796Z,21.45
2022-08-07T22:09:07.098Z,21.42
2022-08-07T22:12:04.801Z,21.37
2022-08-07T22:14:23.768Z,21.33
2022-08-07T22:17:02.511Z,21.24
2022-08-07T22:19:41.621Z,21.20
2022-08-07T22:22:29.042Z,21.22
2022-08-07T22:25:13.247Z,21.23
2022-08-07T22:28:26.832Z,21.22
2022-08-07T22:31:00.810Z,21.21
2022-08-07T22:33:53.638Z,21.19
2022-08-07T22:36:58.530Z,21.16
2022-08-07T22:39:55.377Z,21.15
2022-08-07T22:42:30.922Z,21.08
2022-08-07T22:46:04.115Z,21.01
2022-08-07T22:48:54.647Z,20.99
2022-08-07T22:51:23.378Z,20.99
2022-08-07T22:54:19.675Z,20.93
2022-08-07T22:57:07.811Z,20.88
2022-08-07T23:00:09.079Z,20.90
2022-08-07T23:03:09.282Z,20.91
2022-08-07T23:06:07.536Z,20.91
2022-08-07T23:08:31.545Z,20.95
2022-08-07T23:11:17.668Z,20.97
2022-08-07T23:14:34.184Z,21.00
2022-08-07T23:17:54.797Z,21.01
2022-08-07T23:21:16.169Z,20.99
2022-08-07T23:24:05.358Z,20.96
2022-08-07T23:27:16.211Z,20.89
2022-08-07T23:30:37.642Z,20.85
2022-08-07T23:34:35.023Z,20.83
2022-08-07T23:36:02.986Z,20.82
2022-08-07T23:39:08.545Z,20.82
2022-08-07T23:42:05.107Z,20.85
2022-08-07T23:44:52.606Z,20.88
2022-08-07T23:48:07.732Z,20.87
2022-08-07T23:50:55.808Z,20.89
2022-08-07T23:54:19.683Z,20.92
2022-08-07T23:57:12.163Z,20.88
